sensor_id;sensor_type;location;lat;lon;timestamp;pressure;altitude;pressure_sealevel;temperature
67599;BMP280;62026;39.230;9.122;2023-03-01T00:02:25;100397.28;;;9.58
67599;BMP280;62026;39.230;9.122;2023-03-01T00:04:51;100393.41;;;9.60
67599;BMP280;62026;39.230;9.122;2023-03-01T00:07:17;100382.66;;;9.62
67599;BMP280;62026;39.230;9.122;2023-03-01T00:09:43;100379.44;;;9.66
67599;BMP280;62026;39.230;9.122;2023-03-01T00:12:11;100375.78;;;9.61
67599;BMP280;62026;39.230;9.122;2023-03-01T00:14:37;100380.00;;;9.68
67599;BMP280;62026;39.230;9.122;2023-03-01T00:17:03;100372.94;;;9.62
67599;BMP280;62026;39.230;9.122;2023-03-01T00:19:29;100372.97;;;9.56
67599;BMP280;62026;39.230;9.122;2023-03-01T00:21:55;100367.69;;;9.56
67599;BMP280;62026;39.230;9.122;2023-03-01T00:24:21;100367.66;;;9.62
67599;BMP280;62026;39.230;9.122;2023-03-01T00:26:47;100366.44;;;9.65
67599;BMP280;62026;39.230;9.122;2023-03-01T00:29:13;100366.63;;;9.70
67599;BMP280;62026;39.230;9.122;2023-03-01T00:31:39;100358.53;;;9.65
67599;BMP280;62026;39.230;9.122;2023-03-01T00:34:06;100360.53;;;9.69
67599;BMP280;62026;39.230;9.122;2023-03-01T00:36:36;100357.56;;;9.66
67599;BMP280;62026;39.230;9.122;2023-03-01T00:39:05;100344.38;;;9.66
67599;BMP280;62026;39.230;9.122;2023-03-01T00:41:33;100343.13;;;9.68
67599;BMP280;62026;39.230;9.122;2023-03-01T00:44:00;100332.00;;;9.66
67599;BMP280;62026;39.230;9.122;2023-03-01T00:46:27;100336.47;;;9.66
67599;BMP280;62026;39.230;9.122;2023-03-01T00:48:53;100336.81;;;9.69
67599;BMP280;62026;39.230;9.122;2023-03-01T00:51:27;100333.63;;;9.67
67599;BMP280;62026;39.230;9.122;2023-03-01T00:53:55;100331.19;;;9.66
67599;BMP280;62026;39.230;9.122;2023-03-01T00:56:25;100325.28;;;9.70
67599;BMP280;62026;39.230;9.122;2023-03-01T00:58:52;100323.91;;;9.68
67599;BMP280;62026;39.230;9.122;2023-03-01T01:01:30;100316.56;;;9.70
67599;BMP280;62026;39.230;9.122;2023-03-01T01:04:01;100315.19;;;9.67
67599;BMP280;62026;39.230;9.122;2023-03-01T01:06:46;100303.97;;;9.72
67599;BMP280;62026;39.230;9.122;2023-03-01T01:09:17;100310.47;;;9.76
67599;BMP280;62026;39.230;9.122;2023-03-01T01:11:50;100298.72;;;9.72
67599;BMP280;62026;39.230;9.122;2023-03-01T01:14:18;100288.97;;;9.72
67599;BMP280;62026;39.230;9.122;2023-03-01T01:16:44;100277.63;;;9.72
67599;BMP280;62026;39.230;9.122;2023-03-01T01:19:14;100265.28;;;9.72
67599;BMP280;62026;39.230;9.122;2023-03-01T01:21:41;100256.56;;;9.72
67599;BMP280;62026;39.230;9.122;2023-03-01T01:24:10;100249.69;;;9.71
67599;BMP280;62026;39.230;9.122;2023-03-01T01:26:36;100249.66;;;9.77
67599;BMP280;62026;39.230;9.122;2023-03-01T01:29:04;100238.34;;;9.70
67599;BMP280;62026;39.230;9.122;2023-03-01T01:31:33;100239.59;;;9.68
67599;BMP280;62026;39.230;9.122;2023-03-01T01:34:01;100227.03;;;9.63
67599;BMP280;62026;39.230;9.122;2023-03-01T01:36:28;100225.38;;;9.69
67599;BMP280;62026;39.230;9.122;2023-03-01T01:38:55;100226.63;;;9.66
67599;BMP280;62026;39.230;9.122;2023-03-01T01:41:22;100220.47;;;9.72
67599;BMP280;62026;39.230;9.122;2023-03-01T01:46:58;100199.66;;;9.64
67599;BMP280;62026;39.230;9.122;2023-03-01T01:52:20;100205.97;;;9.63
67599;BMP280;62026;39.230;9.122;2023-03-01T01:55:11;100195.81;;;9.67
67599;BMP280;62026;39.230;9.122;2023-03-01T01:57:48;100191.75;;;9.64
67599;BMP280;62026;39.230;9.122;2023-03-01T02:00:26;100183.88;;;9.64
67599;BMP280;62026;39.230;9.122;2023-03-01T02:02:59;100171.94;;;9.62
67599;BMP280;62026;39.230;9.122;2023-03-01T02:08:02;100161.19;;;9.63
67599;BMP280;62026;39.230;9.122;2023-03-01T02:10:32;100154.28;;;9.62
67599;BMP280;62026;39.230;9.122;2023-03-01T02:13:00;100145.59;;;9.62
67599;BMP280;62026;39.230;9.122;2023-03-01T02:15:26;100148.97;;;9.69
67599;BMP280;62026;39.230;9.122;2023-03-01T02:17:57;100144.97;;;9.66
67599;BMP280;62026;39.230;9.122;2023-03-01T02:23:15;100136.59;;;9.69
67599;BMP280;62026;39.230;9.122;2023-03-01T02:26:20;100143.69;;;9.75
67599;BMP280;62026;39.230;9.122;2023-03-01T02:28:50;100137.81;;;9.73
67599;BMP280;62026;39.230;9.122;2023-03-01T02:31:20;100135.19;;;9.73
67599;BMP280;62026;39.230;9.122;2023-03-01T02:34:09;100130.91;;;9.72
67599;BMP280;62026;39.230;9.122;2023-03-01T02:36:40;100132.34;;;9.75
67599;BMP280;62026;39.230;9.122;2023-03-01T02:39:15;100119.97;;;9.75
67599;BMP280;62026;39.230;9.122;2023-03-01T02:41:52;100120.38;;;9.72
67599;BMP280;62026;39.230;9.122;2023-03-01T02:44:20;100113.50;;;9.71
67599;BMP280;62026;39.230;9.122;2023-03-01T02:46:58;100108.66;;;9.68
67599;BMP280;62026;39.230;9.122;2023-03-01T02:49:31;100104.56;;;9.72
67599;BMP280;62026;39.230;9.122;2023-03-01T02:55:08;100087.47;;;9.81
67599;BMP280;62026;39.230;9.122;2023-03-01T02:57:39;100080.16;;;9.84
67599;BMP280;62026;39.230;9.122;2023-03-01T03:00:26;100087.47;;;9.81
67599;BMP280;62026;39.230;9.122;2023-03-01T03:02:54;100084.84;;;9.81
67599;BMP280;62026;39.230;9.122;2023-03-01T03:05:29;100076.50;;;9.85
67599;BMP280;62026;39.230;9.122;2023-03-01T03:08:00;100075.13;;;9.82
67599;BMP280;62026;39.230;9.122;2023-03-01T03:10:34;100074.50;;;9.80
67599;BMP280;62026;39.230;9.122;2023-03-01T03:13:12;100061.13;;;9.81
67599;BMP280;62026;39.230;9.122;2023-03-01T03:15:41;100062.16;;;9.80
67599;BMP280;62026;39.230;9.122;2023-03-01T03:18:13;100062.75;;;9.82
67599;BMP280;62026;39.230;9.122;2023-03-01T03:20:43;100058.50;;;9.81
67599;BMP280;62026;39.230;9.122;2023-03-01T03:23:10;100046.41;;;9.74
67599;BMP280;62026;39.230;9.122;2023-03-01T03:25:36;100045.78;;;9.72
67599;BMP280;62026;39.230;9.122;2023-03-01T03:28:05;100041.75;;;9.69
67599;BMP280;62026;39.230;9.122;2023-03-01T03:30:38;100039.72;;;9.71
67599;BMP280;62026;39.230;9.122;2023-03-01T03:33:06;100034.88;;;9.68
67599;BMP280;62026;39.230;9.122;2023-03-01T03:35:39;100031.69;;;9.66
67599;BMP280;62026;39.230;9.122;2023-03-01T03:38:09;100032.50;;;9.67
67599;BMP280;62026;39.230;9.122;2023-03-01T03:41:04;100026.44;;;9.66
67599;BMP280;62026;39.230;9.122;2023-03-01T03:43:33;100022.78;;;9.67
67599;BMP280;62026;39.230;9.122;2023-03-01T03:46:00;100018.72;;;9.65
67599;BMP280;62026;39.230;9.122;2023-03-01T03:48:27;100009.88;;;9.59
67599;BMP280;62026;39.230;9.122;2023-03-01T03:50:56;100019.97;;;9.62
67599;BMP280;62026;39.230;9.122;2023-03-01T03:53:26;100015.91;;;9.66
67599;BMP280;62026;39.230;9.122;2023-03-01T03:55:53;100034.44;;;9.71
67599;BMP280;62026;39.230;9.122;2023-03-01T03:58:22;100047.28;;;9.68
67599;BMP280;62026;39.230;9.122;2023-03-01T04:00:53;100036.06;;;9.72
67599;BMP280;62026;39.230;9.122;2023-03-01T04:03:22;100041.16;;;9.74
67599;BMP280;62026;39.230;9.122;2023-03-01T04:05:49;100037.59;;;9.80
67599;BMP280;62026;39.230;9.122;2023-03-01T04:08:23;100044.50;;;9.81
67599;BMP280;62026;39.230;9.122;2023-03-01T04:10:52;100040.06;;;9.81
67599;BMP280;62026;39.230;9.122;2023-03-01T04:13:22;100045.19;;;9.76
67599;BMP280;62026;39.230;9.122;2023-03-01T04:15:54;100049.41;;;9.77
67599;BMP280;62026;39.230;9.122;2023-03-01T04:18:22;100052.09;;;9.71
67599;BMP280;62026;39.230;9.122;2023-03-01T04:20:49;100048.88;;;9.69
67599;BMP280;62026;39.230;9.122;2023-03-01T04:23:20;100059.88;;;9.66
67599;BMP280;62026;39.230;9.122;2023-03-01T04:25:49;100058.44;;;9.63
67599;BMP280;62026;39.230;9.122;2023-03-01T04:30:52;100055.53;;;9.71
67599;BMP280;62026;39.230;9.122;2023-03-01T04:33:19;100057.81;;;9.68
67599;BMP280;62026;39.230;9.122;2023-03-01T04:35:45;100063.88;;;9.68
67599;BMP280;62026;39.230;9.122;2023-03-01T04:38:16;100064.91;;;9.67
67599;BMP280;62026;39.230;9.122;2023-03-01T04:40:42;100066.50;;;9.68
67599;BMP280;62026;39.230;9.122;2023-03-01T04:43:11;100064.41;;;9.77
67599;BMP280;62026;39.230;9.122;2023-03-01T04:45:39;100062.34;;;9.79
67599;BMP280;62026;39.230;9.122;2023-03-01T04:48:06;100068.28;;;9.74
67599;BMP280;62026;39.230;9.122;2023-03-01T04:50:32;100072.94;;;9.72
67599;BMP280;62026;39.230;9.122;2023-03-01T04:52:58;100068.56;;;9.66
67599;BMP280;62026;39.230;9.122;2023-03-01T04:55:26;100076.59;;;9.71
67599;BMP280;62026;39.230;9.122;2023-03-01T04:57:54;100072.56;;;9.69
67599;BMP280;62026;39.230;9.122;2023-03-01T05:00:21;100068.56;;;9.66
67599;BMP280;62026;39.230;9.122;2023-03-01T05:02:57;100073.38;;;9.69
67599;BMP280;62026;39.230;9.122;2023-03-01T05:07:56;100069.03;;;9.57
67599;BMP280;62026;39.230;9.122;2023-03-01T05:10:24;100070.06;;;9.56
67599;BMP280;62026;39.230;9.122;2023-03-01T05:12:51;100075.94;;;9.58
67599;BMP280;62026;39.230;9.122;2023-03-01T05:15:18;100079.78;;;9.55
67599;BMP280;62026;39.230;9.122;2023-03-01T05:17:44;100072.31;;;9.52
67599;BMP280;62026;39.230;9.122;2023-03-01T05:20:12;100074.97;;;9.52
67599;BMP280;62026;39.230;9.122;2023-03-01T05:22:38;100068.66;;;9.53
67599;BMP280;62026;39.230;9.122;2023-03-01T05:25:04;100078.25;;;9.47
67599;BMP280;62026;39.230;9.122;2023-03-01T05:27:31;100081.25;;;9.51
67599;BMP280;62026;39.230;9.122;2023-03-01T05:29:57;100083.66;;;9.53
67599;BMP280;62026;39.230;9.122;2023-03-01T05:32:23;100079.41;;;9.52
67599;BMP280;62026;39.230;9.122;2023-03-01T05:34:49;100078.44;;;9.46
67599;BMP280;62026;39.230;9.122;2023-03-01T05:37:15;100084.31;;;9.48
67599;BMP280;62026;39.230;9.122;2023-03-01T05:39:41;100080.88;;;9.47
67599;BMP280;62026;39.230;9.122;2023-03-01T05:42:11;100088.19;;;9.45
67599;BMP280;62026;39.230;9.122;2023-03-01T05:44:37;100089.56;;;9.48
67599;BMP280;62026;39.230;9.122;2023-03-01T05:47:04;100094.25;;;9.46
67599;BMP280;62026;39.230;9.122;2023-03-01T05:49:31;100094.69;;;9.43
67599;BMP280;62026;39.230;9.122;2023-03-01T05:51:57;100092.22;;;9.41
67599;BMP280;62026;39.230;9.122;2023-03-01T05:54:23;100093.03;;;9.42
67599;BMP280;62026;39.230;9.122;2023-03-01T05:56:49;100098.31;;;9.42
67599;BMP280;62026;39.230;9.122;2023-03-01T05:59:15;100100.38;;;9.40
67599;BMP280;62026;39.230;9.122;2023-03-01T06:01:42;100097.84;;;9.52
67599;BMP280;62026;39.230;9.122;2023-03-01T06:04:08;100103.94;;;9.52
67599;BMP280;62026;39.230;9.122;2023-03-01T06:06:38;100102.47;;;9.56
67599;BMP280;62026;39.230;9.122;2023-03-01T06:09:06;100109.19;;;9.52
67599;BMP280;62026;39.230;9.122;2023-03-01T06:11:35;100106.00;;;9.50
67599;BMP280;62026;39.230;9.122;2023-03-01T06:14:01;100106.00;;;9.50
67599;BMP280;62026;39.230;9.122;2023-03-01T06:16:27;100105.59;;;9.46
67599;BMP280;62026;39.230;9.122;2023-03-01T06:18:53;100104.34;;;9.49
67599;BMP280;62026;39.230;9.122;2023-03-01T06:21:19;100099.84;;;9.56
67599;BMP280;62026;39.230;9.122;2023-03-01T06:23:45;100098.63;;;9.59
67599;BMP280;62026;39.230;9.122;2023-03-01T06:26:11;100096.00;;;9.59
67599;BMP280;62026;39.230;9.122;2023-03-01T06:28:37;100102.84;;;9.60
67599;BMP280;62026;39.230;9.122;2023-03-01T06:31:03;100108.94;;;9.60
67599;BMP280;62026;39.230;9.122;2023-03-01T06:33:30;100104.72;;;9.59
67599;BMP280;62026;39.230;9.122;2023-03-01T06:35:56;100120.84;;;9.63
67599;BMP280;62026;39.230;9.122;2023-03-01T06:38:23;100116.00;;;9.66
67599;BMP280;62026;39.230;9.122;2023-03-01T06:40:56;100124.47;;;9.68
67599;BMP280;62026;39.230;9.122;2023-03-01T06:43:23;100122.88;;;9.67
67599;BMP280;62026;39.230;9.122;2023-03-01T06:45:49;100127.34;;;9.60
67599;BMP280;62026;39.230;9.122;2023-03-01T06:48:15;100123.09;;;9.66
67599;BMP280;62026;39.230;9.122;2023-03-01T06:50:41;100131.34;;;9.69
67599;BMP280;62026;39.230;9.122;2023-03-01T06:53:07;100149.56;;;9.71
67599;BMP280;62026;39.230;9.122;2023-03-01T06:55:33;100145.38;;;9.63
67599;BMP280;62026;39.230;9.122;2023-03-01T06:58:01;100144.34;;;9.64
67599;BMP280;62026;39.230;9.122;2023-03-01T07:00:28;100151.06;;;9.60
67599;BMP280;62026;39.230;9.122;2023-03-01T07:02:56;100148.88;;;9.57
67599;BMP280;62026;39.230;9.122;2023-03-01T07:05:23;100147.63;;;9.60
67599;BMP280;62026;39.230;9.122;2023-03-01T07:07:49;100154.34;;;9.56
67599;BMP280;62026;39.230;9.122;2023-03-01T07:10:16;100154.56;;;9.54
67599;BMP280;62026;39.230;9.122;2023-03-01T07:12:42;100160.78;;;9.60
67599;BMP280;62026;39.230;9.122;2023-03-01T07:15:09;100158.97;;;9.60
67599;BMP280;62026;39.230;9.122;2023-03-01T07:17:36;100161.84;;;9.59
67599;BMP280;62026;39.230;9.122;2023-03-01T07:20:02;100161.38;;;9.62
67599;BMP280;62026;39.230;9.122;2023-03-01T07:22:28;100162.94;;;9.69
67599;BMP280;62026;39.230;9.122;2023-03-01T07:24:54;100162.94;;;9.69
67599;BMP280;62026;39.230;9.122;2023-03-01T07:27:19;100159.28;;;9.70
67599;BMP280;62026;39.230;9.122;2023-03-01T07:29:45;100160.50;;;9.74
67599;BMP280;62026;39.230;9.122;2023-03-01T07:32:11;100158.00;;;9.79
67599;BMP280;62026;39.230;9.122;2023-03-01T07:34:37;100160.59;;;9.86
67599;BMP280;62026;39.230;9.122;2023-03-01T07:37:03;100159.53;;;9.94
67599;BMP280;62026;39.230;9.122;2023-03-01T07:39:29;100159.09;;;9.97
67599;BMP280;62026;39.230;9.122;2023-03-01T07:41:55;100155.44;;;9.98
67599;BMP280;62026;39.230;9.122;2023-03-01T07:44:22;100154.78;;;10.45
67599;BMP280;62026;39.230;9.122;2023-03-01T07:46:48;100162.19;;;11.03
67599;BMP280;62026;39.230;9.122;2023-03-01T07:49:14;100151.19;;;11.48
67599;BMP280;62026;39.230;9.122;2023-03-01T07:51:40;100157.53;;;11.82
67599;BMP280;62026;39.230;9.122;2023-03-01T07:54:07;100160.06;;;12.12
67599;BMP280;62026;39.230;9.122;2023-03-01T07:56:33;100152.78;;;12.43
67599;BMP280;62026;39.230;9.122;2023-03-01T07:58:59;100152.97;;;12.53
67599;BMP280;62026;39.230;9.122;2023-03-01T08:01:25;100156.84;;;12.22
67599;BMP280;62026;39.230;9.122;2023-03-01T08:03:51;100162.69;;;12.35
67599;BMP280;62026;39.230;9.122;2023-03-01T08:06:18;100155.50;;;12.48
67599;BMP280;62026;39.230;9.122;2023-03-01T08:08:45;100162.63;;;12.59
67599;BMP280;62026;39.230;9.122;2023-03-01T08:11:14;100168.44;;;13.01
67599;BMP280;62026;39.230;9.122;2023-03-01T08:13:41;100160.16;;;12.97
67599;BMP280;62026;39.230;9.122;2023-03-01T08:16:14;100169.63;;;12.65
67599;BMP280;62026;39.230;9.122;2023-03-01T08:18:42;100162.56;;;12.82
67599;BMP280;62026;39.230;9.122;2023-03-01T08:21:14;100168.56;;;13.23
67599;BMP280;62026;39.230;9.122;2023-03-01T08:23:42;100163.31;;;12.94
67599;BMP280;62026;39.230;9.122;2023-03-01T08:26:20;100166.31;;;13.15
67599;BMP280;62026;39.230;9.122;2023-03-01T08:28:49;100165.88;;;12.89
67599;BMP280;62026;39.230;9.122;2023-03-01T08:31:22;100170.78;;;12.69
67599;BMP280;62026;39.230;9.122;2023-03-01T08:33:51;100168.94;;;12.69
67599;BMP280;62026;39.230;9.122;2023-03-01T08:36:26;100169.28;;;13.01
67599;BMP280;62026;39.230;9.122;2023-03-01T08:38:53;100178.88;;;13.53
67599;BMP280;62026;39.230;9.122;2023-03-01T08:41:19;100171.81;;;13.58
67599;BMP280;62026;39.230;9.122;2023-03-01T08:43:46;100172.13;;;13.62
67599;BMP280;62026;39.230;9.122;2023-03-01T08:46:12;100174.50;;;13.97
67599;BMP280;62026;39.230;9.122;2023-03-01T08:48:39;100176.09;;;14.36
67599;BMP280;62026;39.230;9.122;2023-03-01T08:51:17;100171.50;;;15.07
67599;BMP280;62026;39.230;9.122;2023-03-01T08:53:43;100176.66;;;15.46
67599;BMP280;62026;39.230;9.122;2023-03-01T08:56:11;100165.97;;;15.41
67599;BMP280;62026;39.230;9.122;2023-03-01T08:58:37;100168.06;;;15.07
67599;BMP280;62026;39.230;9.122;2023-03-01T09:01:11;100180.84;;;14.83
67599;BMP280;62026;39.230;9.122;2023-03-01T09:03:38;100171.88;;;14.62
67599;BMP280;62026;39.230;9.122;2023-03-01T09:06:05;100174.75;;;13.95
67599;BMP280;62026;39.230;9.122;2023-03-01T09:08:42;100179.16;;;13.90
67599;BMP280;62026;39.230;9.122;2023-03-01T09:11:11;100176.91;;;13.82
67599;BMP280;62026;39.230;9.122;2023-03-01T09:13:37;100174.44;;;13.75
67599;BMP280;62026;39.230;9.122;2023-03-01T09:16:06;100179.72;;;14.08
67599;BMP280;62026;39.230;9.122;2023-03-01T09:18:34;100172.97;;;14.23
67599;BMP280;62026;39.230;9.122;2023-03-01T09:21:13;100177.50;;;14.66
67599;BMP280;62026;39.230;9.122;2023-03-01T09:23:43;100169.16;;;14.84
67599;BMP280;62026;39.230;9.122;2023-03-01T09:26:16;100166.75;;;15.09
67599;BMP280;62026;39.230;9.122;2023-03-01T09:28:46;100158.34;;;15.18
67599;BMP280;62026;39.230;9.122;2023-03-01T09:31:15;100161.16;;;15.43
67599;BMP280;62026;39.230;9.122;2023-03-01T09:33:42;100159.13;;;15.18
67599;BMP280;62026;39.230;9.122;2023-03-01T09:36:15;100163.66;;;14.64
67599;BMP280;62026;39.230;9.122;2023-03-01T09:38:43;100169.88;;;14.48
67599;BMP280;62026;39.230;9.122;2023-03-01T09:41:53;100165.13;;;14.55
67599;BMP280;62026;39.230;9.122;2023-03-01T09:45:45;100165.47;;;14.36
67599;BMP280;62026;39.230;9.122;2023-03-01T09:47:40;100164.72;;;14.19
67599;BMP280;62026;39.230;9.122;2023-03-01T09:50:18;100155.38;;;14.38
67599;BMP280;62026;39.230;9.122;2023-03-01T09:58:34;100160.03;;;14.75
67599;BMP280;62026;39.230;9.122;2023-03-01T10:01:56;100156.94;;;14.83
67599;BMP280;62026;39.230;9.122;2023-03-01T10:09:40;100153.16;;;15.01
67599;BMP280;62026;39.230;9.122;2023-03-01T10:12:26;100159.31;;;14.85
67599;BMP280;62026;39.230;9.122;2023-03-01T10:15:15;100158.03;;;14.60
67599;BMP280;62026;39.230;9.122;2023-03-01T10:18:00;100155.00;;;14.52
67599;BMP280;62026;39.230;9.122;2023-03-01T10:20:52;100164.56;;;14.31
67599;BMP280;62026;39.230;9.122;2023-03-01T10:23:19;100165.44;;;14.15
67599;BMP280;62026;39.230;9.122;2023-03-01T10:29:09;100165.50;;;13.98
67599;BMP280;62026;39.230;9.122;2023-03-01T10:34:27;100164.31;;;13.89
67599;BMP280;62026;39.230;9.122;2023-03-01T10:36:59;100166.94;;;13.89
67599;BMP280;62026;39.230;9.122;2023-03-01T10:39:27;100156.63;;;13.87
67599;BMP280;62026;39.230;9.122;2023-03-01T10:44:47;100175.13;;;14.04
67599;BMP280;62026;39.230;9.122;2023-03-01T10:47:24;100166.38;;;14.25
67599;BMP280;62026;39.230;9.122;2023-03-01T10:50:03;100162.50;;;14.33
67599;BMP280;62026;39.230;9.122;2023-03-01T10:52:33;100167.13;;;14.21
67599;BMP280;62026;39.230;9.122;2023-03-01T10:55:43;100168.44;;;14.18
67599;BMP280;62026;39.230;9.122;2023-03-01T10:58:21;100165.97;;;14.12
67599;BMP280;62026;39.230;9.122;2023-03-01T11:00:54;100165.09;;;14.06
67599;BMP280;62026;39.230;9.122;2023-03-01T11:04:31;100168.22;;;14.03
67599;BMP280;62026;39.230;9.122;2023-03-01T11:06:41;100169.75;;;13.99
67599;BMP280;62026;39.230;9.122;2023-03-01T11:09:23;100168.31;;;13.91
67599;BMP280;62026;39.230;9.122;2023-03-01T11:11:59;100174.38;;;13.87
67599;BMP280;62026;39.230;9.122;2023-03-01T11:14:38;100169.53;;;13.84
67599;BMP280;62026;39.230;9.122;2023-03-01T11:17:25;100169.06;;;13.87
67599;BMP280;62026;39.230;9.122;2023-03-01T11:22:52;100175.78;;;13.78
67599;BMP280;62026;39.230;9.122;2023-03-01T11:25:25;100172.06;;;13.73
67599;BMP280;62026;39.230;9.122;2023-03-01T11:27:53;100175.66;;;13.67
67599;BMP280;62026;39.230;9.122;2023-03-01T11:30:38;100172.53;;;13.70
67599;BMP280;62026;39.230;9.122;2023-03-01T11:36:06;100162.63;;;13.83
67599;BMP280;62026;39.230;9.122;2023-03-01T11:38:36;100159.44;;;13.81
67599;BMP280;62026;39.230;9.122;2023-03-01T11:55:18;100138.09;;;14.14
67599;BMP280;62026;39.230;9.122;2023-03-01T12:03:38;100147.66;;;14.15
67599;BMP280;62026;39.230;9.122;2023-03-01T12:06:59;100147.44;;;14.17
67599;BMP280;62026;39.230;9.122;2023-03-01T12:10:00;100142.94;;;14.17
67599;BMP280;62026;39.230;9.122;2023-03-01T12:29:46;100134.16;;;13.95
67599;BMP280;62026;39.230;9.122;2023-03-01T12:38:17;100134.94;;;13.95
67599;BMP280;62026;39.230;9.122;2023-03-01T12:41:31;100130.44;;;13.96
67599;BMP280;62026;39.230;9.122;2023-03-01T12:44:50;100131.41;;;13.90
67599;BMP280;62026;39.230;9.122;2023-03-01T12:49:39;100129.69;;;13.79
67599;BMP280;62026;39.230;9.122;2023-03-01T12:55:23;100129.28;;;13.87
67599;BMP280;62026;39.230;9.122;2023-03-01T13:01:09;100142.03;;;13.90
67599;BMP280;62026;39.230;9.122;2023-03-01T13:10:17;100135.13;;;13.89
67599;BMP280;62026;39.230;9.122;2023-03-01T13:12:50;100138.34;;;13.91
67599;BMP280;62026;39.230;9.122;2023-03-01T13:36:47;100127.69;;;13.86
67599;BMP280;62026;39.230;9.122;2023-03-01T13:41:52;100133.38;;;13.78
67599;BMP280;62026;39.230;9.122;2023-03-01T13:44:32;100133.88;;;13.74
67599;BMP280;62026;39.230;9.122;2023-03-01T13:47:17;100142.81;;;13.68
67599;BMP280;62026;39.230;9.122;2023-03-01T13:49:53;100137.41;;;13.63
67599;BMP280;62026;39.230;9.122;2023-03-01T13:58:13;100150.47;;;13.48
67599;BMP280;62026;39.230;9.122;2023-03-01T14:00:41;100148.81;;;13.47
67599;BMP280;62026;39.230;9.122;2023-03-01T14:03:18;100154.97;;;13.48
67599;BMP280;62026;39.230;9.122;2023-03-01T14:06:20;100148.81;;;13.47
67599;BMP280;62026;39.230;9.122;2023-03-01T14:08:49;100149.41;;;13.49
67599;BMP280;62026;39.230;9.122;2023-03-01T14:14:56;100146.78;;;13.49
67599;BMP280;62026;39.230;9.122;2023-03-01T14:20:25;100145.16;;;13.48
67599;BMP280;62026;39.230;9.122;2023-03-01T14:23:14;100161.06;;;13.48
67599;BMP280;62026;39.230;9.122;2023-03-01T14:25:54;100161.06;;;13.48
67599;BMP280;62026;39.230;9.122;2023-03-01T14:28:26;100156.22;;;13.45
67599;BMP280;62026;39.230;9.122;2023-03-01T14:30:59;100157.16;;;13.39
67599;BMP280;62026;39.230;9.122;2023-03-01T14:33:36;100158.16;;;13.33
67599;BMP280;62026;39.230;9.122;2023-03-01T14:41:25;100164.72;;;13.30
67599;BMP280;62026;39.230;9.122;2023-03-01T14:44:02;100166.13;;;13.50
67599;BMP280;62026;39.230;9.122;2023-03-01T14:46:38;100168.25;;;13.69
67599;BMP280;62026;39.230;9.122;2023-03-01T14:49:17;100163.25;;;13.90
67599;BMP280;62026;39.230;9.122;2023-03-01T14:52:14;100168.91;;;13.93
67599;BMP280;62026;39.230;9.122;2023-03-01T14:54:48;100167.19;;;14.04
67599;BMP280;62026;39.230;9.122;2023-03-01T14:57:20;100162.97;;;14.08
67599;BMP280;62026;39.230;9.122;2023-03-01T15:00:02;100169.19;;;13.97
67599;BMP280;62026;39.230;9.122;2023-03-01T15:02:32;100171.16;;;13.68
67599;BMP280;62026;39.230;9.122;2023-03-01T15:05:02;100171.31;;;13.61
67599;BMP280;62026;39.230;9.122;2023-03-01T15:07:40;100167.31;;;13.59
67599;BMP280;62026;39.230;9.122;2023-03-01T15:10:21;100172.59;;;13.59
67599;BMP280;62026;39.230;9.122;2023-03-01T15:12:48;100173.91;;;13.56
67599;BMP280;62026;39.230;9.122;2023-03-01T15:15:33;100165.69;;;13.58
67599;BMP280;62026;39.230;9.122;2023-03-01T15:18:06;100164.66;;;13.59
67599;BMP280;62026;39.230;9.122;2023-03-01T15:20:39;100171.56;;;13.60
67599;BMP280;62026;39.230;9.122;2023-03-01T15:23:05;100182.56;;;13.52
67599;BMP280;62026;39.230;9.122;2023-03-01T15:25:33;100180.06;;;13.45
67599;BMP280;62026;39.230;9.122;2023-03-01T15:28:01;100182.72;;;13.45
67599;BMP280;62026;39.230;9.122;2023-03-01T15:30:34;100188.75;;;13.40
67599;BMP280;62026;39.230;9.122;2023-03-01T15:33:34;100181.91;;;13.28
67599;BMP280;62026;39.230;9.122;2023-03-01T15:36:33;100184.66;;;13.33
67599;BMP280;62026;39.230;9.122;2023-03-01T15:39:04;100185.22;;;13.35
67599;BMP280;62026;39.230;9.122;2023-03-01T15:41:46;100188.50;;;13.25
67599;BMP280;62026;39.230;9.122;2023-03-01T15:44:17;100201.78;;;13.14
67599;BMP280;62026;39.230;9.122;2023-03-01T15:46:48;100207.34;;;13.12
67599;BMP280;62026;39.230;9.122;2023-03-01T15:49:39;100201.78;;;13.14
67599;BMP280;62026;39.230;9.122;2023-03-01T15:52:20;100206.63;;;13.17
67599;BMP280;62026;39.230;9.122;2023-03-01T15:54:47;100209.03;;;13.18
67599;BMP280;62026;39.230;9.122;2023-03-01T15:57:14;100205.47;;;13.13
67599;BMP280;62026;39.230;9.122;2023-03-01T15:59:41;100206.78;;;13.10
67599;BMP280;62026;39.230;9.122;2023-03-01T16:02:11;100206.00;;;13.10
67599;BMP280;62026;39.230;9.122;2023-03-01T16:04:39;100209.88;;;13.07
67599;BMP280;62026;39.230;9.122;2023-03-01T16:07:05;100207.72;;;13.04
67599;BMP280;62026;39.230;9.122;2023-03-01T16:09:31;100213.28;;;13.02
67599;BMP280;62026;39.230;9.122;2023-03-01T16:11:58;100221.66;;;12.99
67599;BMP280;62026;39.230;9.122;2023-03-01T16:14:24;100219.25;;;12.98
67599;BMP280;62026;39.230;9.122;2023-03-01T16:16:50;100225.25;;;12.93
67599;BMP280;62026;39.230;9.122;2023-03-01T16:19:16;100231.16;;;12.95
67599;BMP280;62026;39.230;9.122;2023-03-01T16:21:42;100232.38;;;12.93
67599;BMP280;62026;39.230;9.122;2023-03-01T16:24:13;100238.47;;;12.93
67599;BMP280;62026;39.230;9.122;2023-03-01T16:26:39;100242.16;;;12.92
67599;BMP280;62026;39.230;9.122;2023-03-01T16:29:05;100241.88;;;12.89
67599;BMP280;62026;39.230;9.122;2023-03-01T16:31:32;100247.16;;;12.89
67599;BMP280;62026;39.230;9.122;2023-03-01T16:33:59;100250.84;;;12.88
67599;BMP280;62026;39.230;9.122;2023-03-01T16:36:27;100252.91;;;12.86
67599;BMP280;62026;39.230;9.122;2023-03-01T16:38:58;100258.69;;;12.83
67599;BMP280;62026;39.230;9.122;2023-03-01T16:41:24;100252.59;;;12.82
67599;BMP280;62026;39.230;9.122;2023-03-01T16:43:51;100259.97;;;12.80
67599;BMP280;62026;39.230;9.122;2023-03-01T16:46:24;100261.94;;;12.73
67599;BMP280;62026;39.230;9.122;2023-03-01T16:48:51;100270.09;;;12.71
67599;BMP280;62026;39.230;9.122;2023-03-01T16:51:19;100274.81;;;12.69
67599;BMP280;62026;39.230;9.122;2023-03-01T16:53:45;100268.16;;;12.67
67599;BMP280;62026;39.230;9.122;2023-03-01T16:56:13;100276.91;;;12.67